createdAt,value
2022-09-22T00:02:32.806Z,6.67
2022-09-22T00:05:26.166Z,5.97
2022-09-22T00:08:26.820Z,6.50
2022-09-22T00:11:39.093Z,6.20
2022-09-22T00:14:31.741Z,6.30
2022-09-22T00:17:22.853Z,6.00
2022-09-22T00:20:24.981Z,6.50
2022-09-22T00:23:16.683Z,6.17
2022-09-22T00:26:10.578Z,6.13
2022-09-22T00:29:10.090Z,5.37
2022-09-22T00:32:12.749Z,6.30
2022-09-22T00:35:09.019Z,5.90
2022-09-22T00:38:00.323Z,6.00
2022-09-22T00:40:54.173Z,6.70
2022-09-22T00:43:56.136Z,6.53
2022-09-22T00:46:55.302Z,6.57
2022-09-22T00:49:56.299Z,7.23
2022-09-22T00:52:48.842Z,6.00
2022-09-22T00:55:50.185Z,6.60
2022-09-22T00:58:46.060Z,7.10
2022-09-22T01:01:43.618Z,6.50
2022-09-22T01:04:54.300Z,5.83
2022-09-22T01:07:50.678Z,6.90
2022-09-22T01:10:54.420Z,7.60
2022-09-22T01:13:56.516Z,6.97
2022-09-22T01:16:54.019Z,7.30
2022-09-22T01:20:10.826Z,7.80
2022-09-22T01:23:15.491Z,7.50
2022-09-22T01:26:28.722Z,7.70
2022-09-22T01:29:42.638Z,7.23
2022-09-22T01:32:46.474Z,8.97
2022-09-22T01:35:50.723Z,8.40
2022-09-22T01:38:55.977Z,8.37
2022-09-22T01:42:02.395Z,8.90
2022-09-22T01:45:02.630Z,8.67
2022-09-22T01:48:12.874Z,8.63
2022-09-22T01:51:08.825Z,8.97
2022-09-22T01:54:10.381Z,9.20
2022-09-22T01:57:17.250Z,9.20
2022-09-22T02:00:25.335Z,9.80
2022-09-22T02:03:24.515Z,9.07
2022-09-22T02:06:23.782Z,9.13
2022-09-22T02:09:16.472Z,9.77
2022-09-22T02:12:10.525Z,9.37
2022-09-22T02:15:01.991Z,9.70
2022-09-22T02:17:55.610Z,9.30
2022-09-22T02:21:00.900Z,8.60
2022-09-22T02:23:54.896Z,10.60
2022-09-22T02:26:50.081Z,8.83
2022-09-22T02:29:49.598Z,9.07
2022-09-22T02:32:45.959Z,10.27
2022-09-22T02:35:43.751Z,11.07
2022-09-22T02:38:53.611Z,10.20
2022-09-22T02:42:27.998Z,10.90
2022-09-22T02:45:26.339Z,10.30
2022-09-22T02:48:29.285Z,10.60
2022-09-22T02:51:27.884Z,11.00
2022-09-22T02:54:34.040Z,10.67
2022-09-22T02:57:27.241Z,10.90
2022-09-22T03:00:24.822Z,10.67
2022-09-22T03:03:18.069Z,11.10
2022-09-22T03:06:11.944Z,11.10
2022-09-22T03:09:08.403Z,11.70
2022-09-22T03:12:11.099Z,10.83
2022-09-22T03:15:16.736Z,10.10
2022-09-22T03:18:19.937Z,10.13
2022-09-22T03:21:25.982Z,9.30
2022-09-22T03:24:17.739Z,9.97
2022-09-22T03:27:21.322Z,9.50
2022-09-22T03:30:15.750Z,9.80
2022-09-22T03:33:11.102Z,9.10
2022-09-22T03:36:17.375Z,10.40
2022-09-22T03:39:13.989Z,8.90
2022-09-22T03:42:10.222Z,9.40
2022-09-22T03:45:03.118Z,9.20
2022-09-22T03:47:57.968Z,8.97
2022-09-22T03:50:49.474Z,9.10
2022-09-22T03:53:48.181Z,9.70
2022-09-22T03:56:54.170Z,9.57
2022-09-22T03:59:59.806Z,9.87
2022-09-22T04:03:14.598Z,9.87
2022-09-22T04:06:04.166Z,9.30
2022-09-22T04:08:54.981Z,9.50
2022-09-22T04:11:51.218Z,9.13
2022-09-22T04:14:43.236Z,9.53
2022-09-22T04:17:51.197Z,9.50
2022-09-22T04:20:49.199Z,9.50
2022-09-22T04:23:53.217Z,10.03
2022-09-22T04:27:19.087Z,9.00
2022-09-22T04:30:13.842Z,9.70
2022-09-22T04:33:18.636Z,10.57
2022-09-22T04:36:27.508Z,10.43
2022-09-22T04:39:33.135Z,9.60
2022-09-22T04:42:27.563Z,9.67
2022-09-22T04:45:21.843Z,9.67
2022-09-22T04:48:21.748Z,9.37
2022-09-22T04:51:23.863Z,10.00
2022-09-22T04:54:15.092Z,9.37
2022-09-22T04:57:12.294Z,10.40
2022-09-22T05:00:04.121Z,10.30
2022-09-22T05:02:53.639Z,9.63
2022-09-22T05:05:47.742Z,9.13
2022-09-22T05:08:44.340Z,9.93
2022-09-22T05:11:51.603Z,9.73
2022-09-22T05:14:42.890Z,10.83
2022-09-22T05:17:44.784Z,9.20
2022-09-22T05:20:37.629Z,9.23
2022-09-22T05:23:42.045Z,9.63
2022-09-22T05:26:48.271Z,8.53
2022-09-22T05:29:45.205Z,9.37
2022-09-22T05:32:48.538Z,9.40
2022-09-22T05:35:43.360Z,9.37
2022-09-22T05:38:47.288Z,9.17
2022-09-22T05:41:59.790Z,8.03
2022-09-22T05:45:02.899Z,8.60
2022-09-22T05:48:07.305Z,8.43
2022-09-22T05:51:04.117Z,8.40
2022-09-22T05:54:07.705Z,8.30
2022-09-22T05:57:08.494Z,10.43
2022-09-22T06:00:03.040Z,9.20
2022-09-22T06:03:01.668Z,10.90
2022-09-22T06:05:53.310Z,8.80
2022-09-22T06:08:57.161Z,10.70
2022-09-22T06:12:01.321Z,10.57
2022-09-22T06:15:05.886Z,12.90
2022-09-22T06:17:57.890Z,12.60
2022-09-22T06:21:02.182Z,12.57
2022-09-22T06:24:02.150Z,12.73
2022-09-22T06:26:54.039Z,12.27
2022-09-22T06:29:43.063Z,11.30
2022-09-22T06:32:57.470Z,13.70
2022-09-22T06:35:52.365Z,13.77
2022-09-22T06:38:44.379Z,12.80
2022-09-22T06:41:50.916Z,12.70
2022-09-22T06:44:50.951Z,12.40
2022-09-22T06:48:10.430Z,10.87
2022-09-22T06:51:14.556Z,12.30
2022-09-22T06:54:09.415Z,10.77
2022-09-22T06:57:01.080Z,9.80
2022-09-22T06:59:59.790Z,9.40
2022-09-22T07:02:58.666Z,7.60
2022-09-22T07:06:05.925Z,6.87
2022-09-22T07:08:58.188Z,5.93
2022-09-22T07:11:56.198Z,5.20
2022-09-22T07:14:58.241Z,4.60
2022-09-22T07:18:05.727Z,4.20
2022-09-22T07:20:59.492Z,4.67
2022-09-22T07:23:51.510Z,4.47
2022-09-22T07:26:46.740Z,3.83
2022-09-22T07:29:39.958Z,3.13
2022-09-22T07:32:40.473Z,3.10
2022-09-22T07:35:41.172Z,3.37
2022-09-22T07:38:38.962Z,3.40
2022-09-22T07:41:43.822Z,3.67
2022-09-22T07:44:52.240Z,4.23
2022-09-22T07:48:00.495Z,3.50
2022-09-22T07:51:03.366Z,2.93
2022-09-22T07:54:09.963Z,3.60
2022-09-22T07:57:13.991Z,6.67
2022-09-22T08:00:07.988Z,3.70
2022-09-22T08:02:58.931Z,4.20
2022-09-22T08:05:55.099Z,3.30
2022-09-22T08:08:59.103Z,3.30
2022-09-22T08:11:55.399Z,3.03
2022-09-22T08:14:49.764Z,3.05
2022-09-22T08:17:53.919Z,3.30
2022-09-22T08:20:46.355Z,2.60
2022-09-22T08:23:42.703Z,3.20
2022-09-22T08:26:52.896Z,3.08
2022-09-22T08:29:45.483Z,2.58
2022-09-22T08:32:41.959Z,2.50
2022-09-22T08:35:36.610Z,3.22
2022-09-22T08:38:33.386Z,3.03
2022-09-22T08:41:32.706Z,3.25
2022-09-22T08:44:29.245Z,2.70
2022-09-22T08:48:02.327Z,3.28
2022-09-22T08:51:10.875Z,3.47
2022-09-22T08:54:05.312Z,3.65
2022-09-22T08:57:14.441Z,3.70
2022-09-22T09:03:26.513Z,3.00
2022-09-22T09:06:27.324Z,4.57
2022-09-22T09:09:31.958Z,3.50
2022-09-22T09:12:44.536Z,3.60
2022-09-22T09:15:57.409Z,3.10
2022-09-22T09:18:58.343Z,3.25
2022-09-22T09:22:04.887Z,3.45
2022-09-22T09:25:30.787Z,2.80
2022-09-22T09:28:31.549Z,2.97
2022-09-22T09:31:37.863Z,2.72
2022-09-22T09:34:35.648Z,3.38
2022-09-22T09:37:30.374Z,3.17
2022-09-22T09:40:25.881Z,3.90
2022-09-22T09:43:23.931Z,3.00
2022-09-22T09:46:27.058Z,4.10
2022-09-22T09:49:28.472Z,3.58
2022-09-22T09:52:21.146Z,2.97
2022-09-22T09:55:36.944Z,3.55
2022-09-22T09:58:46.682Z,3.65
2022-09-22T10:01:41.790Z,3.55
2022-09-22T10:04:40.967Z,3.03
2022-09-22T10:07:35.683Z,2.97
2022-09-22T10:10:38.187Z,2.20
2022-09-22T10:13:33.953Z,2.53
2022-09-22T10:16:32.879Z,2.35
2022-09-22T10:19:46.934Z,3.00
2022-09-22T10:22:57.021Z,3.30
2022-09-22T10:25:57.107Z,2.58
2022-09-22T10:28:53.054Z,1.83
2022-09-22T10:31:48.065Z,1.63
2022-09-22T10:34:40.004Z,2.00
2022-09-22T10:37:35.852Z,2.08
2022-09-22T10:40:47.859Z,1.90
2022-09-22T10:43:48.384Z,1.92
2022-09-22T10:47:03.833Z,1.73
2022-09-22T10:50:07.447Z,1.27
2022-09-22T10:52:59.580Z,1.90
2022-09-22T10:56:10.864Z,1.52
2022-09-22T10:59:26.128Z,1.52
2022-09-22T11:02:40.678Z,1.65
2022-09-22T11:05:59.629Z,1.80
2022-09-22T11:09:13.903Z,2.20
2022-09-22T11:12:31.658Z,2.17
2022-09-22T11:15:37.540Z,4.43
2022-09-22T11:18:55.034Z,3.40
2022-09-22T11:21:56.644Z,1.85
2022-09-22T11:24:59.824Z,1.48
2022-09-22T11:28:12.249Z,1.90
2022-09-22T11:31:25.725Z,1.90
2022-09-22T11:34:36.072Z,2.00
2022-09-22T11:37:44.698Z,1.70
2022-09-22T11:40:54.775Z,2.40
2022-09-22T11:44:06.681Z,2.00
2022-09-22T11:47:20.662Z,1.70
2022-09-22T11:50:28.648Z,1.75
2022-09-22T11:53:36.214Z,1.95
2022-09-22T11:56:37.033Z,1.95
2022-09-22T11:59:39.035Z,1.65
2022-09-22T12:02:37.670Z,1.63
2022-09-22T12:05:41.966Z,2.30
2022-09-22T12:08:42.538Z,1.75
2022-09-22T12:11:39.687Z,1.63
2022-09-22T12:14:34.849Z,1.58
2022-09-22T12:17:35.333Z,1.77
2022-09-22T12:20:38.253Z,1.65
2022-09-22T12:23:47.661Z,1.25
2022-09-22T12:26:48.479Z,1.58
2022-09-22T12:29:42.623Z,1.67
2022-09-22T12:32:55.620Z,1.15
2022-09-22T12:35:59.027Z,1.13
2022-09-22T12:38:49.937Z,1.13
2022-09-22T12:41:57.821Z,1.10
2022-09-22T12:44:57.559Z,1.23
2022-09-22T12:47:58.600Z,1.25
2022-09-22T12:51:03.092Z,1.15
2022-09-22T12:54:05.935Z,1.02
2022-09-22T12:56:58.235Z,1.25
2022-09-22T13:00:07.647Z,0.90
2022-09-22T13:03:04.281Z,1.10
2022-09-22T13:06:11.850Z,1.10
2022-09-22T13:09:19.863Z,1.23
2022-09-22T13:12:35.188Z,1.27
2022-09-22T13:15:32.049Z,1.58
2022-09-22T13:18:39.919Z,1.00
2022-09-22T13:21:42.523Z,1.02
2022-09-22T13:24:32.045Z,1.30
2022-09-22T13:27:29.470Z,1.30
2022-09-22T13:30:25.047Z,0.90
2022-09-22T13:33:28.840Z,0.90
2022-09-22T13:36:27.577Z,1.10
2022-09-22T13:39:29.104Z,1.08
2022-09-22T13:42:37.586Z,0.98
2022-09-22T13:45:42.311Z,0.93
2022-09-22T13:48:41.874Z,1.35
2022-09-22T13:51:41.987Z,1.10
2022-09-22T13:55:01.098Z,1.02
2022-09-22T13:57:57.490Z,1.23
2022-09-22T14:01:12.698Z,1.58
2022-09-22T14:04:14.948Z,1.77
2022-09-22T14:07:12.697Z,1.20
2022-09-22T14:10:25.239Z,1.45
2022-09-22T14:13:42.427Z,1.35
2022-09-22T14:16:42.615Z,0.90
2022-09-22T14:19:56.508Z,1.10
2022-09-22T14:22:56.650Z,1.65
2022-09-22T14:25:52.337Z,0.93
2022-09-22T14:28:51.607Z,1.13
2022-09-22T14:31:46.282Z,1.50
2022-09-22T14:34:47.750Z,1.73
2022-09-22T14:37:48.749Z,1.20
2022-09-22T14:40:56.185Z,1.30
2022-09-22T14:44:10.783Z,2.17
2022-09-22T14:47:15.045Z,1.92
2022-09-22T14:50:13.497Z,1.90
2022-09-22T14:53:15.892Z,2.22
2022-09-22T14:56:18.492Z,1.50
2022-09-22T14:59:42.226Z,1.27
2022-09-22T15:02:44.178Z,3.00
2022-09-22T15:05:42.718Z,1.45
2022-09-22T15:08:35.111Z,1.40
2022-09-22T15:11:53.111Z,1.08
2022-09-22T15:14:58.947Z,1.20
2022-09-22T15:18:10.299Z,1.00
2022-09-22T15:21:03.616Z,1.00
2022-09-22T15:24:00.706Z,1.02
2022-09-22T15:26:52.146Z,0.93
2022-09-22T15:29:56.258Z,0.82
2022-09-22T15:33:06.531Z,1.10
2022-09-22T15:36:02.246Z,1.00
2022-09-22T15:38:55.793Z,1.10
2022-09-22T15:42:09.755Z,1.10
2022-09-22T15:45:11.319Z,1.20
2022-09-22T15:48:08.589Z,0.80
2022-09-22T15:51:12.065Z,0.83
2022-09-22T15:54:18.183Z,1.07
2022-09-22T15:57:09.667Z,1.97
2022-09-22T16:00:03.840Z,2.07
2022-09-22T16:03:04.069Z,1.47
2022-09-22T16:06:11.533Z,1.67
2022-09-22T16:09:02.571Z,1.10
2022-09-22T16:12:05.769Z,1.10
2022-09-22T16:14:58.017Z,1.23
2022-09-22T16:17:59.571Z,1.00
2022-09-22T16:20:52.135Z,1.20
2022-09-22T16:23:50.754Z,1.00
2022-09-22T16:26:41.836Z,1.53
2022-09-22T16:29:51.471Z,1.70
2022-09-22T16:32:47.281Z,1.37
2022-09-22T16:35:51.508Z,0.93
2022-09-22T16:38:44.509Z,1.37
2022-09-22T16:41:53.955Z,1.17
2022-09-22T16:44:48.863Z,1.30
2022-09-22T16:47:43.112Z,1.70
2022-09-22T16:50:32.273Z,1.27
2022-09-22T16:53:37.169Z,1.63
2022-09-22T16:56:31.996Z,1.37
2022-09-22T16:59:33.349Z,1.40
2022-09-22T17:02:25.351Z,1.57
2022-09-22T17:05:24.724Z,1.77
2022-09-22T17:08:16.787Z,2.10
2022-09-22T17:11:16.012Z,1.53
2022-09-22T17:14:11.927Z,1.60
2022-09-22T17:17:12.905Z,1.73
2022-09-22T17:20:05.268Z,1.93
2022-09-22T17:22:59.169Z,1.50
2022-09-22T17:25:51.223Z,1.63
2022-09-22T17:28:49.384Z,2.00
2022-09-22T17:31:44.131Z,1.97
2022-09-22T17:34:55.515Z,1.67
2022-09-22T17:37:56.367Z,2.10
2022-09-22T17:40:54.116Z,2.00
2022-09-22T17:43:51.864Z,2.97
2022-09-22T17:47:13.566Z,2.20
2022-09-22T17:50:25.318Z,4.70
2022-09-22T17:53:35.583Z,3.80
2022-09-22T17:56:31.724Z,6.50
2022-09-22T17:59:29.371Z,6.60
2022-09-22T18:02:22.126Z,5.60
2022-09-22T18:05:32.627Z,5.03
2022-09-22T18:08:38.457Z,4.40
2022-09-22T18:11:53.594Z,4.47
2022-09-22T18:14:48.913Z,3.60
2022-09-22T18:17:50.226Z,3.40
2022-09-22T18:20:52.740Z,2.77
2022-09-22T18:23:56.565Z,21.07
2022-09-22T18:26:50.682Z,25.30
2022-09-22T18:29:48.479Z,12.47
2022-09-22T18:32:44.911Z,5.03
2022-09-22T18:35:50.337Z,4.00
2022-09-22T18:38:48.721Z,4.30
2022-09-22T18:41:42.497Z,4.70
2022-09-22T18:44:37.279Z,4.03
2022-09-22T18:47:38.255Z,4.30
2022-09-22T18:50:38.466Z,4.30
2022-09-22T18:53:42.311Z,4.13
2022-09-22T18:56:45.328Z,4.30
2022-09-22T18:59:39.309Z,4.60
2022-09-22T19:02:30.997Z,4.80
2022-09-22T19:05:33.733Z,5.03
2022-09-22T19:08:33.853Z,5.47
2022-09-22T19:11:32.443Z,5.60
2022-09-22T19:14:41.337Z,6.87
2022-09-22T19:17:35.223Z,5.80
2022-09-22T19:20:35.157Z,4.80
2022-09-22T19:23:27.921Z,5.00
2022-09-22T19:26:25.844Z,5.63
2022-09-22T19:29:29.259Z,4.23
2022-09-22T19:32:38.504Z,4.63
2022-09-22T19:35:38.956Z,3.70
2022-09-22T19:38:45.131Z,3.47
2022-09-22T19:41:51.348Z,3.60
2022-09-22T19:44:45.973Z,4.53
2022-09-22T19:47:49.039Z,3.60
2022-09-22T19:50:46.806Z,4.03
2022-09-22T19:53:43.796Z,4.37
2022-09-22T19:56:38.514Z,3.67
2022-09-22T19:59:36.398Z,3.97
2022-09-22T20:02:42.878Z,4.40
2022-09-22T20:05:38.852Z,4.30
2022-09-22T20:08:42.851Z,3.97
2022-09-22T20:11:33.902Z,3.87
2022-09-22T20:14:37.019Z,3.80
2022-09-22T20:17:41.376Z,3.53
2022-09-22T20:20:35.365Z,5.03
2022-09-22T20:23:30.218Z,5.50
2022-09-22T20:26:30.401Z,4.60
2022-09-22T20:29:34.179Z,5.03
2022-09-22T20:32:27.855Z,8.00
2022-09-22T20:35:26.918Z,7.60
2022-09-22T20:38:19.687Z,8.50
2022-09-22T20:41:32.274Z,7.70
2022-09-22T20:44:36.606Z,10.17
2022-09-22T20:47:32.853Z,10.20
2022-09-22T20:50:37.629Z,9.03
2022-09-22T20:53:29.842Z,7.67
2022-09-22T20:56:42.802Z,8.07
2022-09-22T20:59:48.870Z,7.23
2022-09-22T21:02:46.660Z,5.80
2022-09-22T21:05:47.514Z,5.10
2022-09-22T21:09:00.876Z,4.73
2022-09-22T21:12:08.677Z,4.67
2022-09-22T21:15:14.681Z,4.00
2022-09-22T21:18:08.336Z,3.50
2022-09-22T21:21:01.485Z,3.90
2022-09-22T21:24:04.239Z,3.70
2022-09-22T21:27:13.123Z,3.50
2022-09-22T21:30:12.171Z,3.73
2022-09-22T21:33:17.979Z,3.53
2022-09-22T21:36:14.157Z,3.20
2022-09-22T21:39:06.629Z,3.40
2022-09-22T21:42:12.331Z,4.13
2022-09-22T21:45:16.991Z,5.13
2022-09-22T21:48:10.682Z,4.50
2022-09-22T21:51:04.334Z,3.50
2022-09-22T21:53:59.498Z,5.30
2022-09-22T21:57:03.564Z,3.80
2022-09-22T22:00:00.083Z,3.60
2022-09-22T22:03:09.673Z,3.80
2022-09-22T22:06:15.004Z,4.20
2022-09-22T22:09:05.096Z,4.00
2022-09-22T22:12:07.383Z,4.47
2022-09-22T22:15:18.387Z,4.50
2022-09-22T22:18:22.823Z,5.10
2022-09-22T22:21:22.768Z,4.80
2022-09-22T22:24:42.683Z,4.50
2022-09-22T22:27:46.289Z,4.00
2022-09-22T22:30:47.137Z,4.10
2022-09-22T22:33:40.935Z,4.37
2022-09-22T22:36:36.014Z,4.40
2022-09-22T22:39:26.616Z,3.70
2022-09-22T22:42:31.052Z,3.80
2022-09-22T22:45:25.849Z,3.47
2022-09-22T22:48:33.917Z,4.00
2022-09-22T22:51:38.338Z,4.90
2022-09-22T22:54:42.431Z,3.80
2022-09-22T22:57:38.419Z,4.67
2022-09-22T23:00:36.190Z,3.83
2022-09-22T23:03:43.704Z,4.03
2022-09-22T23:06:35.721Z,4.67
2022-09-22T23:09:27.183Z,4.63
2022-09-22T23:12:21.240Z,4.40
2022-09-22T23:15:13.575Z,4.60
2022-09-22T23:18:17.555Z,4.70
2022-09-22T23:21:13.938Z,5.20
2022-09-22T23:24:07.796Z,4.93
2022-09-22T23:27:05.482Z,4.83
2022-09-22T23:29:58.294Z,4.63
2022-09-22T23:33:01.617Z,5.17
2022-09-22T23:35:57.888Z,4.80
2022-09-22T23:38:56.654Z,4.33
2022-09-22T23:42:02.859Z,4.77
2022-09-22T23:44:57.237Z,5.50
2022-09-22T23:48:03.355Z,5.07
2022-09-22T23:50:55.335Z,5.20
2022-09-22T23:53:59.004Z,5.97
2022-09-22T23:57:01.363Z,4.73
2022-09-22T23:59:56.309Z,4.63
